KCAO/CAO METAR and TAF weather

Enter ICAO airport designator
Station Type Date Time Source
KCAO METAR 2020/01/22 14:55 UTC NOAA

KCAO 221455Z AUTO 34009KT 10SM OVC110 05/M02 A2982 RMK AO2 SLP096 T00501017 51020


Station Type Date Time Source
KCAO Decoded METAR 2020/01/22 14:55 UTC NOAA

CLAYTON MUNICIPAL AIRPARK, NM, United States (KCAO) 36-27N 103-09W 1514M
Jan 22, 2020 - 09:55 AM EST / 2020.01.22 1455 UTC
Wind: from the NNW (340 degrees) at 10 MPH (9 KT):0
Visibility: 10 mile(s):0
Sky conditions: overcast
Temperature: 41.0 F (5.0 C)
Dew Point: 28.9 F (-1.7 C)
Relative Humidity: 61%
Pressure (altimeter): 29.82 in. Hg (1009 hPa)
Pressure tendency: 0.06 inches (2.0 hPa) higher than three hours ago
ob: KCAO 221455Z AUTO 34009KT 10SM OVC110 05/M02 A2982 RMK AO2 SLP096 T00501017 51020
cycle: 15

Station Type Date Time Source
KCAO TAF UTC NOAA

Error!

Example: see airport list